sensor_id;sensor_type;location;lat;lon;timestamp;P1;durP1;ratioP1;P2;durP2;ratioP2
23404;SDS011;11875;49.356;2.718;2022-11-15T00:02:07;1.50;;;1.10;;
23404;SDS011;11875;49.356;2.718;2022-11-15T00:04:33;5.13;;;2.30;;
23404;SDS011;11875;49.356;2.718;2022-11-15T00:06:58;4.60;;;2.17;;
23404;SDS011;11875;49.356;2.718;2022-11-15T00:09:24;3.70;;;1.70;;
23404;SDS011;11875;49.356;2.718;2022-11-15T00:11:50;2.53;;;1.27;;
23404;SDS011;11875;49.356;2.718;2022-11-15T00:14:16;5.90;;;2.00;;
23404;SDS011;11875;49.356;2.718;2022-11-15T00:16:42;3.10;;;1.30;;
23404;SDS011;11875;49.356;2.718;2022-11-15T00:19:08;4.77;;;1.43;;
23404;SDS011;11875;49.356;2.718;2022-11-15T00:21:34;3.60;;;1.23;;
23404;SDS011;11875;49.356;2.718;2022-11-15T00:24:00;4.13;;;1.87;;
23404;SDS011;11875;49.356;2.718;2022-11-15T00:26:25;1.73;;;1.27;;
23404;SDS011;11875;49.356;2.718;2022-11-15T00:28:52;2.07;;;1.50;;
23404;SDS011;11875;49.356;2.718;2022-11-15T00:31:18;7.60;;;3.47;;
23404;SDS011;11875;49.356;2.718;2022-11-15T00:33:44;3.10;;;1.70;;
23404;SDS011;11875;49.356;2.718;2022-11-15T00:36:10;2.73;;;1.60;;
23404;SDS011;11875;49.356;2.718;2022-11-15T00:38:36;3.80;;;1.40;;
23404;SDS011;11875;49.356;2.718;2022-11-15T00:41:04;3.13;;;1.43;;
23404;SDS011;11875;49.356;2.718;2022-11-15T00:43:30;2.97;;;1.43;;
23404;SDS011;11875;49.356;2.718;2022-11-15T00:45:56;2.90;;;1.30;;
23404;SDS011;11875;49.356;2.718;2022-11-15T00:48:22;2.47;;;1.60;;
23404;SDS011;11875;49.356;2.718;2022-11-15T00:50:48;3.07;;;1.60;;
23404;SDS011;11875;49.356;2.718;2022-11-15T00:53:15;3.77;;;1.27;;
23404;SDS011;11875;49.356;2.718;2022-11-15T00:55:41;4.20;;;1.67;;
23404;SDS011;11875;49.356;2.718;2022-11-15T00:58:06;3.33;;;1.30;;
23404;SDS011;11875;49.356;2.718;2022-11-15T01:00:32;4.70;;;1.60;;
23404;SDS011;11875;49.356;2.718;2022-11-15T01:02:58;2.17;;;1.53;;
23404;SDS011;11875;49.356;2.718;2022-11-15T01:05:25;2.97;;;1.40;;
23404;SDS011;11875;49.356;2.718;2022-11-15T01:07:51;5.37;;;1.83;;
23404;SDS011;11875;49.356;2.718;2022-11-15T01:10:17;3.20;;;1.87;;
23404;SDS011;11875;49.356;2.718;2022-11-15T01:12:43;5.40;;;2.30;;
23404;SDS011;11875;49.356;2.718;2022-11-15T01:15:08;5.40;;;2.50;;
23404;SDS011;11875;49.356;2.718;2022-11-15T01:17:34;4.80;;;2.57;;
23404;SDS011;11875;49.356;2.718;2022-11-15T01:20:00;4.70;;;2.83;;
23404;SDS011;11875;49.356;2.718;2022-11-15T01:22:25;5.90;;;2.90;;
23404;SDS011;11875;49.356;2.718;2022-11-15T01:24:51;5.77;;;3.10;;
23404;SDS011;11875;49.356;2.718;2022-11-15T01:27:17;7.40;;;3.00;;
23404;SDS011;11875;49.356;2.718;2022-11-15T01:29:43;5.63;;;4.13;;
23404;SDS011;11875;49.356;2.718;2022-11-15T01:32:08;6.10;;;3.30;;
23404;SDS011;11875;49.356;2.718;2022-11-15T01:34:34;7.67;;;3.43;;
23404;SDS011;11875;49.356;2.718;2022-11-15T01:37:00;4.80;;;3.30;;
23404;SDS011;11875;49.356;2.718;2022-11-15T01:39:25;4.90;;;3.30;;
23404;SDS011;11875;49.356;2.718;2022-11-15T01:41:51;7.73;;;3.20;;
23404;SDS011;11875;49.356;2.718;2022-11-15T01:47:15;8.30;;;3.77;;
23404;SDS011;11875;49.356;2.718;2022-11-15T01:49:54;10.67;;;4.20;;
23404;SDS011;11875;49.356;2.718;2022-11-15T01:52:24;10.37;;;4.40;;
23404;SDS011;11875;49.356;2.718;2022-11-15T01:54:53;8.27;;;4.00;;
23404;SDS011;11875;49.356;2.718;2022-11-15T01:57:23;6.60;;;4.20;;
23404;SDS011;11875;49.356;2.718;2022-11-15T01:59:49;7.57;;;4.20;;
23404;SDS011;11875;49.356;2.718;2022-11-15T02:02:15;8.03;;;4.23;;
23404;SDS011;11875;49.356;2.718;2022-11-15T02:04:47;9.80;;;4.83;;
23404;SDS011;11875;49.356;2.718;2022-11-15T02:07:15;7.07;;;4.90;;
23404;SDS011;11875;49.356;2.718;2022-11-15T02:09:43;15.30;;;9.63;;
23404;SDS011;11875;49.356;2.718;2022-11-15T02:12:09;5.93;;;4.70;;
23404;SDS011;11875;49.356;2.718;2022-11-15T02:14:38;7.60;;;4.87;;
23404;SDS011;11875;49.356;2.718;2022-11-15T02:30:55;10.03;;;6.93;;
23404;SDS011;11875;49.356;2.718;2022-11-15T02:33:41;11.30;;;7.27;;
23404;SDS011;11875;49.356;2.718;2022-11-15T02:41:40;10.13;;;7.07;;
23404;SDS011;11875;49.356;2.718;2022-11-15T02:46:57;12.23;;;6.67;;
23404;SDS011;11875;49.356;2.718;2022-11-15T02:49:49;11.87;;;6.40;;
23404;SDS011;11875;49.356;2.718;2022-11-15T02:52:18;10.50;;;6.77;;
23404;SDS011;11875;49.356;2.718;2022-11-15T02:54:55;13.93;;;6.07;;
23404;SDS011;11875;49.356;2.718;2022-11-15T03:00:20;12.03;;;6.97;;
23404;SDS011;11875;49.356;2.718;2022-11-15T03:16:10;9.57;;;6.70;;
23404;SDS011;11875;49.356;2.718;2022-11-15T03:18:51;10.33;;;6.37;;
23404;SDS011;11875;49.356;2.718;2022-11-15T03:21:21;9.07;;;6.43;;
23404;SDS011;11875;49.356;2.718;2022-11-15T03:23:49;9.40;;;6.00;;
23404;SDS011;11875;49.356;2.718;2022-11-15T03:26:18;14.70;;;6.23;;
23404;SDS011;11875;49.356;2.718;2022-11-15T03:29:00;10.20;;;5.73;;
23404;SDS011;11875;49.356;2.718;2022-11-15T03:31:30;10.73;;;5.60;;
23404;SDS011;11875;49.356;2.718;2022-11-15T03:34:14;10.30;;;5.10;;
23404;SDS011;11875;49.356;2.718;2022-11-15T03:36:56;10.27;;;5.23;;
23404;SDS011;11875;49.356;2.718;2022-11-15T03:39:22;7.77;;;5.13;;
23404;SDS011;11875;49.356;2.718;2022-11-15T03:41:52;11.50;;;5.50;;
23404;SDS011;11875;49.356;2.718;2022-11-15T03:44:46;8.47;;;5.00;;
23404;SDS011;11875;49.356;2.718;2022-11-15T03:50:09;8.33;;;4.60;;
23404;SDS011;11875;49.356;2.718;2022-11-15T03:52:38;7.80;;;4.40;;
23404;SDS011;11875;49.356;2.718;2022-11-15T03:55:06;10.20;;;4.20;;
23404;SDS011;11875;49.356;2.718;2022-11-15T03:57:33;8.20;;;3.40;;
23404;SDS011;11875;49.356;2.718;2022-11-15T03:59:59;7.93;;;3.37;;
23404;SDS011;11875;49.356;2.718;2022-11-15T04:02:25;8.07;;;3.50;;
23404;SDS011;11875;49.356;2.718;2022-11-15T04:04:50;10.60;;;3.73;;
23404;SDS011;11875;49.356;2.718;2022-11-15T04:07:16;11.40;;;3.80;;
23404;SDS011;11875;49.356;2.718;2022-11-15T04:09:42;7.17;;;3.07;;
23404;SDS011;11875;49.356;2.718;2022-11-15T04:12:26;5.10;;;3.03;;
23404;SDS011;11875;49.356;2.718;2022-11-15T04:15:01;7.30;;;3.07;;
23404;SDS011;11875;49.356;2.718;2022-11-15T04:17:55;8.50;;;2.73;;
23404;SDS011;11875;49.356;2.718;2022-11-15T04:20:21;8.33;;;2.60;;
23404;SDS011;11875;49.356;2.718;2022-11-15T04:23:09;8.27;;;2.97;;
23404;SDS011;11875;49.356;2.718;2022-11-15T04:26:05;7.23;;;3.13;;
23404;SDS011;11875;49.356;2.718;2022-11-15T04:28:41;3.87;;;2.43;;
23404;SDS011;11875;49.356;2.718;2022-11-15T04:31:25;11.33;;;2.57;;
23404;SDS011;11875;49.356;2.718;2022-11-15T04:33:52;6.17;;;2.50;;
23404;SDS011;11875;49.356;2.718;2022-11-15T04:36:18;8.43;;;2.00;;
23404;SDS011;11875;49.356;2.718;2022-11-15T04:39:03;9.87;;;2.60;;
23404;SDS011;11875;49.356;2.718;2022-11-15T04:41:29;4.87;;;2.50;;
23404;SDS011;11875;49.356;2.718;2022-11-15T04:43:54;9.30;;;2.60;;
23404;SDS011;11875;49.356;2.718;2022-11-15T04:46:20;5.17;;;2.30;;
23404;SDS011;11875;49.356;2.718;2022-11-15T04:48:46;6.07;;;2.07;;
23404;SDS011;11875;49.356;2.718;2022-11-15T04:51:12;7.07;;;2.07;;
23404;SDS011;11875;49.356;2.718;2022-11-15T04:53:37;8.47;;;2.53;;
23404;SDS011;11875;49.356;2.718;2022-11-15T04:56:03;10.27;;;2.60;;
23404;SDS011;11875;49.356;2.718;2022-11-15T04:58:29;5.53;;;2.40;;
23404;SDS011;11875;49.356;2.718;2022-11-15T05:00:54;5.27;;;2.30;;
23404;SDS011;11875;49.356;2.718;2022-11-15T05:03:20;6.30;;;2.33;;
23404;SDS011;11875;49.356;2.718;2022-11-15T05:06:04;5.90;;;1.80;;
23404;SDS011;11875;49.356;2.718;2022-11-15T05:08:30;7.70;;;2.50;;
23404;SDS011;11875;49.356;2.718;2022-11-15T05:10:56;7.93;;;1.93;;
23404;SDS011;11875;49.356;2.718;2022-11-15T05:13:21;4.93;;;1.97;;
23404;SDS011;11875;49.356;2.718;2022-11-15T05:15:47;9.83;;;2.50;;
23404;SDS011;11875;49.356;2.718;2022-11-15T05:18:13;5.53;;;2.17;;
23404;SDS011;11875;49.356;2.718;2022-11-15T05:20:38;6.17;;;1.83;;
23404;SDS011;11875;49.356;2.718;2022-11-15T05:23:04;7.77;;;2.20;;
23404;SDS011;11875;49.356;2.718;2022-11-15T05:25:30;6.17;;;2.20;;
23404;SDS011;11875;49.356;2.718;2022-11-15T05:27:55;3.43;;;1.83;;
23404;SDS011;11875;49.356;2.718;2022-11-15T05:30:21;8.83;;;2.00;;
23404;SDS011;11875;49.356;2.718;2022-11-15T05:32:47;7.23;;;1.90;;
23404;SDS011;11875;49.356;2.718;2022-11-15T05:35:14;5.03;;;2.20;;
23404;SDS011;11875;49.356;2.718;2022-11-15T05:37:59;7.53;;;2.63;;
23404;SDS011;11875;49.356;2.718;2022-11-15T05:40:25;5.63;;;1.90;;
23404;SDS011;11875;49.356;2.718;2022-11-15T05:42:51;6.33;;;2.40;;
23404;SDS011;11875;49.356;2.718;2022-11-15T05:45:17;4.83;;;2.13;;
23404;SDS011;11875;49.356;2.718;2022-11-15T05:47:43;5.73;;;2.23;;
23404;SDS011;11875;49.356;2.718;2022-11-15T05:50:12;6.73;;;1.87;;
23404;SDS011;11875;49.356;2.718;2022-11-15T05:52:40;5.03;;;1.87;;
23404;SDS011;11875;49.356;2.718;2022-11-15T05:55:07;4.53;;;1.80;;
23404;SDS011;11875;49.356;2.718;2022-11-15T05:57:34;8.90;;;2.00;;
23404;SDS011;11875;49.356;2.718;2022-11-15T06:00:00;8.37;;;2.10;;
23404;SDS011;11875;49.356;2.718;2022-11-15T06:02:27;6.73;;;2.40;;
23404;SDS011;11875;49.356;2.718;2022-11-15T06:04:53;5.20;;;2.10;;
23404;SDS011;11875;49.356;2.718;2022-11-15T06:07:18;6.80;;;2.03;;
23404;SDS011;11875;49.356;2.718;2022-11-15T06:09:44;5.03;;;2.23;;
23404;SDS011;11875;49.356;2.718;2022-11-15T06:12:09;7.23;;;2.20;;
23404;SDS011;11875;49.356;2.718;2022-11-15T06:14:35;7.57;;;2.03;;
23404;SDS011;11875;49.356;2.718;2022-11-15T06:17:00;4.37;;;1.70;;
23404;SDS011;11875;49.356;2.718;2022-11-15T06:19:27;4.97;;;2.00;;
23404;SDS011;11875;49.356;2.718;2022-11-15T06:21:52;5.70;;;2.03;;
23404;SDS011;11875;49.356;2.718;2022-11-15T06:24:18;6.20;;;2.37;;
23404;SDS011;11875;49.356;2.718;2022-11-15T06:26:43;6.80;;;2.27;;
23404;SDS011;11875;49.356;2.718;2022-11-15T06:29:09;4.67;;;2.00;;
23404;SDS011;11875;49.356;2.718;2022-11-15T06:31:34;4.63;;;2.27;;
23404;SDS011;11875;49.356;2.718;2022-11-15T06:34:00;7.47;;;2.33;;
23404;SDS011;11875;49.356;2.718;2022-11-15T06:36:26;7.53;;;2.47;;
23404;SDS011;11875;49.356;2.718;2022-11-15T06:38:52;7.60;;;2.30;;
23404;SDS011;11875;49.356;2.718;2022-11-15T06:41:17;7.93;;;2.30;;
23404;SDS011;11875;49.356;2.718;2022-11-15T06:43:43;6.50;;;2.13;;
23404;SDS011;11875;49.356;2.718;2022-11-15T06:46:09;7.70;;;2.20;;
23404;SDS011;11875;49.356;2.718;2022-11-15T06:48:35;6.33;;;2.50;;
23404;SDS011;11875;49.356;2.718;2022-11-15T06:51:01;6.47;;;2.60;;
23404;SDS011;11875;49.356;2.718;2022-11-15T06:53:28;5.90;;;2.40;;
23404;SDS011;11875;49.356;2.718;2022-11-15T06:56:02;8.77;;;2.13;;
23404;SDS011;11875;49.356;2.718;2022-11-15T06:58:29;8.67;;;2.43;;
23404;SDS011;11875;49.356;2.718;2022-11-15T07:00:58;6.03;;;2.03;;
23404;SDS011;11875;49.356;2.718;2022-11-15T07:03:28;5.33;;;1.97;;
23404;SDS011;11875;49.356;2.718;2022-11-15T07:05:55;4.43;;;1.90;;
23404;SDS011;11875;49.356;2.718;2022-11-15T07:08:21;5.23;;;2.10;;
23404;SDS011;11875;49.356;2.718;2022-11-15T07:10:48;4.97;;;2.10;;
23404;SDS011;11875;49.356;2.718;2022-11-15T07:13:14;7.90;;;1.80;;
23404;SDS011;11875;49.356;2.718;2022-11-15T07:15:40;8.10;;;2.20;;
23404;SDS011;11875;49.356;2.718;2022-11-15T07:18:06;8.27;;;2.33;;
23404;SDS011;11875;49.356;2.718;2022-11-15T07:20:31;5.77;;;2.73;;
23404;SDS011;11875;49.356;2.718;2022-11-15T07:23:00;7.10;;;1.80;;
23404;SDS011;11875;49.356;2.718;2022-11-15T07:25:27;4.40;;;2.23;;
23404;SDS011;11875;49.356;2.718;2022-11-15T07:27:59;4.37;;;1.60;;
23404;SDS011;11875;49.356;2.718;2022-11-15T07:30:25;8.17;;;2.10;;
23404;SDS011;11875;49.356;2.718;2022-11-15T07:32:56;6.80;;;2.17;;
23404;SDS011;11875;49.356;2.718;2022-11-15T07:35:23;4.13;;;1.60;;
23404;SDS011;11875;49.356;2.718;2022-11-15T07:37:56;5.60;;;1.77;;
23404;SDS011;11875;49.356;2.718;2022-11-15T07:40:26;4.73;;;2.13;;
23404;SDS011;11875;49.356;2.718;2022-11-15T07:42:58;5.97;;;1.80;;
23404;SDS011;11875;49.356;2.718;2022-11-15T07:45:28;4.27;;;2.00;;
23404;SDS011;11875;49.356;2.718;2022-11-15T07:47:54;6.97;;;2.10;;
23404;SDS011;11875;49.356;2.718;2022-11-15T07:50:20;7.27;;;1.80;;
23404;SDS011;11875;49.356;2.718;2022-11-15T07:52:46;5.70;;;2.23;;
23404;SDS011;11875;49.356;2.718;2022-11-15T07:55:12;4.80;;;1.40;;
23404;SDS011;11875;49.356;2.718;2022-11-15T07:57:38;3.57;;;1.73;;
23404;SDS011;11875;49.356;2.718;2022-11-15T08:00:04;4.17;;;1.90;;
23404;SDS011;11875;49.356;2.718;2022-11-15T08:02:31;3.50;;;1.97;;
23404;SDS011;11875;49.356;2.718;2022-11-15T08:04:56;6.67;;;2.00;;
23404;SDS011;11875;49.356;2.718;2022-11-15T08:07:22;5.77;;;1.90;;
23404;SDS011;11875;49.356;2.718;2022-11-15T08:09:48;5.57;;;2.20;;
23404;SDS011;11875;49.356;2.718;2022-11-15T08:12:14;4.43;;;1.73;;
23404;SDS011;11875;49.356;2.718;2022-11-15T08:14:39;6.30;;;2.10;;
23404;SDS011;11875;49.356;2.718;2022-11-15T08:17:05;8.10;;;1.80;;
23404;SDS011;11875;49.356;2.718;2022-11-15T08:19:30;6.83;;;1.80;;
23404;SDS011;11875;49.356;2.718;2022-11-15T08:21:56;5.00;;;1.90;;
23404;SDS011;11875;49.356;2.718;2022-11-15T08:24:21;5.83;;;1.53;;
23404;SDS011;11875;49.356;2.718;2022-11-15T08:26:47;4.83;;;1.70;;
23404;SDS011;11875;49.356;2.718;2022-11-15T08:29:13;5.13;;;3.43;;
23404;SDS011;11875;49.356;2.718;2022-11-15T08:31:38;3.90;;;1.63;;
23404;SDS011;11875;49.356;2.718;2022-11-15T08:34:04;5.67;;;1.60;;
23404;SDS011;11875;49.356;2.718;2022-11-15T08:36:31;6.83;;;1.90;;
23404;SDS011;11875;49.356;2.718;2022-11-15T08:38:56;11.10;;;1.93;;
23404;SDS011;11875;49.356;2.718;2022-11-15T08:41:32;3.63;;;1.40;;
23404;SDS011;11875;49.356;2.718;2022-11-15T08:44:00;3.83;;;2.00;;
23404;SDS011;11875;49.356;2.718;2022-11-15T08:46:26;7.00;;;3.17;;
23404;SDS011;11875;49.356;2.718;2022-11-15T08:48:52;5.33;;;1.90;;
23404;SDS011;11875;49.356;2.718;2022-11-15T08:51:17;4.90;;;1.37;;
23404;SDS011;11875;49.356;2.718;2022-11-15T08:53:43;7.53;;;1.53;;
23404;SDS011;11875;49.356;2.718;2022-11-15T08:56:09;4.43;;;1.73;;
23404;SDS011;11875;49.356;2.718;2022-11-15T08:58:36;6.43;;;1.60;;
23404;SDS011;11875;49.356;2.718;2022-11-15T09:01:02;3.67;;;1.53;;
23404;SDS011;11875;49.356;2.718;2022-11-15T09:03:28;5.07;;;2.17;;
23404;SDS011;11875;49.356;2.718;2022-11-15T09:05:55;4.03;;;1.70;;
23404;SDS011;11875;49.356;2.718;2022-11-15T09:08:21;4.43;;;1.80;;
23404;SDS011;11875;49.356;2.718;2022-11-15T09:10:48;4.80;;;1.53;;
23404;SDS011;11875;49.356;2.718;2022-11-15T09:13:13;4.77;;;1.50;;
23404;SDS011;11875;49.356;2.718;2022-11-15T09:15:39;2.43;;;1.50;;
23404;SDS011;11875;49.356;2.718;2022-11-15T09:18:04;9.83;;;1.70;;
23404;SDS011;11875;49.356;2.718;2022-11-15T09:20:30;3.27;;;1.30;;
23404;SDS011;11875;49.356;2.718;2022-11-15T09:23:03;4.23;;;1.50;;
23404;SDS011;11875;49.356;2.718;2022-11-15T09:25:30;4.27;;;1.67;;
23404;SDS011;11875;49.356;2.718;2022-11-15T09:27:55;3.50;;;2.00;;
23404;SDS011;11875;49.356;2.718;2022-11-15T09:30:22;5.10;;;1.90;;
23404;SDS011;11875;49.356;2.718;2022-11-15T09:32:48;7.13;;;1.77;;
23404;SDS011;11875;49.356;2.718;2022-11-15T09:35:14;5.60;;;1.83;;
23404;SDS011;11875;49.356;2.718;2022-11-15T09:37:39;3.10;;;1.67;;
23404;SDS011;11875;49.356;2.718;2022-11-15T09:40:05;5.33;;;1.87;;
23404;SDS011;11875;49.356;2.718;2022-11-15T09:50:44;4.13;;;1.40;;
23404;SDS011;11875;49.356;2.718;2022-11-15T09:53:14;7.57;;;1.90;;
23404;SDS011;11875;49.356;2.718;2022-11-15T09:55:57;5.87;;;2.20;;
23404;SDS011;11875;49.356;2.718;2022-11-15T09:58:28;3.33;;;1.63;;
23404;SDS011;11875;49.356;2.718;2022-11-15T10:01:06;4.93;;;1.70;;
23404;SDS011;11875;49.356;2.718;2022-11-15T10:03:39;4.77;;;1.70;;
23404;SDS011;11875;49.356;2.718;2022-11-15T10:06:13;7.53;;;1.73;;
23404;SDS011;11875;49.356;2.718;2022-11-15T10:11:19;2.17;;;1.60;;
23404;SDS011;11875;49.356;2.718;2022-11-15T10:13:48;11.63;;;2.70;;
23404;SDS011;11875;49.356;2.718;2022-11-15T10:21:29;2.47;;;1.80;;
23404;SDS011;11875;49.356;2.718;2022-11-15T10:24:12;8.73;;;2.07;;
23404;SDS011;11875;49.356;2.718;2022-11-15T10:26:45;3.30;;;1.60;;
23404;SDS011;11875;49.356;2.718;2022-11-15T10:29:19;4.23;;;2.10;;
23404;SDS011;11875;49.356;2.718;2022-11-15T10:31:45;4.77;;;2.70;;
23404;SDS011;11875;49.356;2.718;2022-11-15T10:34:12;4.20;;;1.70;;
23404;SDS011;11875;49.356;2.718;2022-11-15T10:36:38;7.27;;;1.50;;
23404;SDS011;11875;49.356;2.718;2022-11-15T10:39:18;5.33;;;2.23;;
23404;SDS011;11875;49.356;2.718;2022-11-15T10:41:44;5.53;;;1.60;;
23404;SDS011;11875;49.356;2.718;2022-11-15T10:46:41;6.23;;;2.03;;
23404;SDS011;11875;49.356;2.718;2022-11-15T10:49:16;2.30;;;1.63;;
23404;SDS011;11875;49.356;2.718;2022-11-15T10:51:48;5.90;;;2.00;;
23404;SDS011;11875;49.356;2.718;2022-11-15T10:54:29;5.60;;;1.50;;
23404;SDS011;11875;49.356;2.718;2022-11-15T10:57:08;2.40;;;1.40;;
23404;SDS011;11875;49.356;2.718;2022-11-15T10:59:48;3.07;;;1.67;;
23404;SDS011;11875;49.356;2.718;2022-11-15T11:05:05;2.83;;;1.70;;
23404;SDS011;11875;49.356;2.718;2022-11-15T11:07:55;3.37;;;1.60;;
23404;SDS011;11875;49.356;2.718;2022-11-15T11:10:26;3.73;;;1.70;;
23404;SDS011;11875;49.356;2.718;2022-11-15T11:12:52;3.50;;;1.73;;
23404;SDS011;11875;49.356;2.718;2022-11-15T11:15:18;3.03;;;1.57;;
23404;SDS011;11875;49.356;2.718;2022-11-15T11:25:51;3.97;;;1.47;;
23404;SDS011;11875;49.356;2.718;2022-11-15T11:28:27;9.30;;;7.80;;
23404;SDS011;11875;49.356;2.718;2022-11-15T11:31:30;3.70;;;1.80;;
23404;SDS011;11875;49.356;2.718;2022-11-15T11:34:19;1.90;;;1.53;;
23404;SDS011;11875;49.356;2.718;2022-11-15T11:40:28;4.13;;;1.70;;
23404;SDS011;11875;49.356;2.718;2022-11-15T11:48:40;3.23;;;2.17;;
23404;SDS011;11875;49.356;2.718;2022-11-15T11:54:03;2.33;;;1.90;;
23404;SDS011;11875;49.356;2.718;2022-11-15T11:56:36;3.70;;;2.40;;
23404;SDS011;11875;49.356;2.718;2022-11-15T11:59:11;6.40;;;2.30;;
23404;SDS011;11875;49.356;2.718;2022-11-15T12:01:48;2.67;;;1.80;;
23404;SDS011;11875;49.356;2.718;2022-11-15T12:04:16;3.37;;;2.03;;
23404;SDS011;11875;49.356;2.718;2022-11-15T12:07:13;5.07;;;2.40;;
23404;SDS011;11875;49.356;2.718;2022-11-15T12:09:41;6.13;;;2.30;;
23404;SDS011;11875;49.356;2.718;2022-11-15T12:12:20;3.03;;;2.03;;
23404;SDS011;11875;49.356;2.718;2022-11-15T12:17:41;11.80;;;10.70;;
23404;SDS011;11875;49.356;2.718;2022-11-15T12:20:23;6.83;;;4.30;;
23404;SDS011;11875;49.356;2.718;2022-11-15T12:23:03;3.50;;;2.30;;
23404;SDS011;11875;49.356;2.718;2022-11-15T12:25:32;5.00;;;3.10;;
23404;SDS011;11875;49.356;2.718;2022-11-15T12:28:11;4.63;;;2.20;;
23404;SDS011;11875;49.356;2.718;2022-11-15T12:30:45;6.00;;;2.60;;
23404;SDS011;11875;49.356;2.718;2022-11-15T12:33:29;4.13;;;2.10;;
23404;SDS011;11875;49.356;2.718;2022-11-15T12:39:02;4.53;;;2.23;;
23404;SDS011;11875;49.356;2.718;2022-11-15T12:41:31;3.40;;;2.57;;
23404;SDS011;11875;49.356;2.718;2022-11-15T12:44:03;11.57;;;6.30;;
23404;SDS011;11875;49.356;2.718;2022-11-15T12:52:08;3.77;;;2.83;;
23404;SDS011;11875;49.356;2.718;2022-11-15T13:02:24;5.47;;;3.67;;
23404;SDS011;11875;49.356;2.718;2022-11-15T13:04:54;9.70;;;5.00;;
23404;SDS011;11875;49.356;2.718;2022-11-15T13:17:40;16.03;;;8.77;;
23404;SDS011;11875;49.356;2.718;2022-11-15T13:30:39;6.40;;;3.80;;
23404;SDS011;11875;49.356;2.718;2022-11-15T13:33:36;6.47;;;3.87;;
23404;SDS011;11875;49.356;2.718;2022-11-15T13:36:05;6.50;;;3.73;;
23404;SDS011;11875;49.356;2.718;2022-11-15T13:38:37;5.10;;;2.93;;
23404;SDS011;11875;49.356;2.718;2022-11-15T13:43:46;6.70;;;3.90;;
23404;SDS011;11875;49.356;2.718;2022-11-15T13:48:42;5.03;;;3.83;;
23404;SDS011;11875;49.356;2.718;2022-11-15T13:51:12;5.43;;;2.80;;
23404;SDS011;11875;49.356;2.718;2022-11-15T13:53:50;4.13;;;3.17;;
23404;SDS011;11875;49.356;2.718;2022-11-15T13:56:21;5.67;;;3.20;;
23404;SDS011;11875;49.356;2.718;2022-11-15T13:58:47;4.80;;;3.30;;
23404;SDS011;11875;49.356;2.718;2022-11-15T14:01:14;5.20;;;3.70;;
23404;SDS011;11875;49.356;2.718;2022-11-15T14:03:49;5.30;;;3.40;;
23404;SDS011;11875;49.356;2.718;2022-11-15T14:06:24;4.73;;;3.33;;
23404;SDS011;11875;49.356;2.718;2022-11-15T14:11:34;4.70;;;3.43;;
23404;SDS011;11875;49.356;2.718;2022-11-15T14:16:35;7.03;;;4.30;;
23404;SDS011;11875;49.356;2.718;2022-11-15T14:19:06;5.23;;;3.60;;
23404;SDS011;11875;49.356;2.718;2022-11-15T14:21:35;5.63;;;3.13;;
23404;SDS011;11875;49.356;2.718;2022-11-15T14:24:16;6.00;;;3.10;;
23404;SDS011;11875;49.356;2.718;2022-11-15T14:26:44;4.83;;;4.00;;
23404;SDS011;11875;49.356;2.718;2022-11-15T14:31:53;20.40;;;12.67;;
23404;SDS011;11875;49.356;2.718;2022-11-15T14:34:31;5.03;;;3.80;;
23404;SDS011;11875;49.356;2.718;2022-11-15T14:36:57;5.43;;;4.00;;
23404;SDS011;11875;49.356;2.718;2022-11-15T14:39:23;5.70;;;3.90;;
23404;SDS011;11875;49.356;2.718;2022-11-15T14:41:50;4.73;;;3.97;;
23404;SDS011;11875;49.356;2.718;2022-11-15T14:44:15;6.33;;;4.80;;
23404;SDS011;11875;49.356;2.718;2022-11-15T14:46:43;7.37;;;3.60;;
23404;SDS011;11875;49.356;2.718;2022-11-15T14:49:09;6.33;;;4.07;;
23404;SDS011;11875;49.356;2.718;2022-11-15T14:51:34;7.23;;;3.97;;
23404;SDS011;11875;49.356;2.718;2022-11-15T14:54:00;8.03;;;3.53;;
23404;SDS011;11875;49.356;2.718;2022-11-15T14:56:26;7.10;;;3.90;;
23404;SDS011;11875;49.356;2.718;2022-11-15T14:58:52;5.17;;;3.00;;
23404;SDS011;11875;49.356;2.718;2022-11-15T15:01:25;5.57;;;3.80;;
23404;SDS011;11875;49.356;2.718;2022-11-15T15:03:52;5.83;;;3.20;;
23404;SDS011;11875;49.356;2.718;2022-11-15T15:06:20;5.07;;;3.53;;
23404;SDS011;11875;49.356;2.718;2022-11-15T15:08:46;5.33;;;4.00;;
23404;SDS011;11875;49.356;2.718;2022-11-15T15:11:21;7.27;;;4.03;;
23404;SDS011;11875;49.356;2.718;2022-11-15T15:13:49;5.80;;;3.47;;
23404;SDS011;11875;49.356;2.718;2022-11-15T15:16:15;6.33;;;3.60;;
23404;SDS011;11875;49.356;2.718;2022-11-15T15:18:41;8.27;;;3.73;;
23404;SDS011;11875;49.356;2.718;2022-11-15T15:21:16;3.93;;;3.20;;
23404;SDS011;11875;49.356;2.718;2022-11-15T15:23:46;5.77;;;3.43;;
23404;SDS011;11875;49.356;2.718;2022-11-15T15:26:12;6.10;;;3.90;;
23404;SDS011;11875;49.356;2.718;2022-11-15T15:28:38;12.60;;;6.47;;
23404;SDS011;11875;49.356;2.718;2022-11-15T15:31:04;5.27;;;3.80;;
23404;SDS011;11875;49.356;2.718;2022-11-15T15:33:30;10.53;;;5.63;;
23404;SDS011;11875;49.356;2.718;2022-11-15T15:35:55;12.57;;;7.77;;
23404;SDS011;11875;49.356;2.718;2022-11-15T15:38:21;9.27;;;5.47;;
23404;SDS011;11875;49.356;2.718;2022-11-15T15:40:47;5.13;;;3.57;;
23404;SDS011;11875;49.356;2.718;2022-11-15T15:43:13;19.67;;;8.83;;
23404;SDS011;11875;49.356;2.718;2022-11-15T15:45:39;7.30;;;5.07;;
23404;SDS011;11875;49.356;2.718;2022-11-15T15:48:09;7.87;;;4.23;;
23404;SDS011;11875;49.356;2.718;2022-11-15T15:50:37;8.07;;;5.60;;
23404;SDS011;11875;49.356;2.718;2022-11-15T15:53:03;15.23;;;8.83;;
23404;SDS011;11875;49.356;2.718;2022-11-15T15:55:30;31.00;;;20.90;;
23404;SDS011;11875;49.356;2.718;2022-11-15T15:57:56;8.43;;;5.17;;
23404;SDS011;11875;49.356;2.718;2022-11-15T16:00:22;24.57;;;15.83;;
23404;SDS011;11875;49.356;2.718;2022-11-15T16:02:49;7.33;;;4.70;;
23404;SDS011;11875;49.356;2.718;2022-11-15T16:05:15;9.07;;;6.20;;
23404;SDS011;11875;49.356;2.718;2022-11-15T16:07:42;5.67;;;4.53;;
23404;SDS011;11875;49.356;2.718;2022-11-15T16:10:19;7.37;;;5.20;;
23404;SDS011;11875;49.356;2.718;2022-11-15T16:12:45;9.37;;;5.80;;
23404;SDS011;11875;49.356;2.718;2022-11-15T16:15:11;8.30;;;5.30;;
23404;SDS011;11875;49.356;2.718;2022-11-15T16:17:40;13.13;;;8.43;;
23404;SDS011;11875;49.356;2.718;2022-11-15T16:20:20;9.40;;;5.57;;
23404;SDS011;11875;49.356;2.718;2022-11-15T16:22:51;8.47;;;5.50;;
23404;SDS011;11875;49.356;2.718;2022-11-15T16:25:16;8.77;;;4.60;;
23404;SDS011;11875;49.356;2.718;2022-11-15T16:27:42;8.13;;;4.53;;
23404;SDS011;11875;49.356;2.718;2022-11-15T16:30:20;4.40;;;3.87;;
23404;SDS011;11875;49.356;2.718;2022-11-15T16:32:46;8.03;;;5.33;;
23404;SDS011;11875;49.356;2.718;2022-11-15T16:35:13;12.07;;;8.70;;
23404;SDS011;11875;49.356;2.718;2022-11-15T16:37:40;15.93;;;9.23;;
23404;SDS011;11875;49.356;2.718;2022-11-15T16:43:00;14.37;;;10.20;;
23404;SDS011;11875;49.356;2.718;2022-11-15T16:45:27;14.93;;;9.60;;
23404;SDS011;11875;49.356;2.718;2022-11-15T16:47:55;8.13;;;5.73;;
23404;SDS011;11875;49.356;2.718;2022-11-15T16:50:26;8.80;;;5.27;;
23404;SDS011;11875;49.356;2.718;2022-11-15T16:52:54;11.90;;;7.87;;
23404;SDS011;11875;49.356;2.718;2022-11-15T16:55:21;10.40;;;6.43;;
23404;SDS011;11875;49.356;2.718;2022-11-15T16:57:48;7.30;;;5.57;;
23404;SDS011;11875;49.356;2.718;2022-11-15T17:00:14;12.83;;;8.80;;
23404;SDS011;11875;49.356;2.718;2022-11-15T17:02:45;7.73;;;4.90;;
23404;SDS011;11875;49.356;2.718;2022-11-15T17:05:12;6.30;;;4.63;;
23404;SDS011;11875;49.356;2.718;2022-11-15T17:07:39;8.57;;;5.93;;
23404;SDS011;11875;49.356;2.718;2022-11-15T17:10:05;8.73;;;6.38;;
23404;SDS011;11875;49.356;2.718;2022-11-15T17:12:32;11.20;;;6.33;;
23404;SDS011;11875;49.356;2.718;2022-11-15T17:14:59;10.17;;;6.70;;
23404;SDS011;11875;49.356;2.718;2022-11-15T17:17:24;7.60;;;5.37;;
23404;SDS011;11875;49.356;2.718;2022-11-15T17:19:50;7.30;;;5.40;;